Time,TemperatureF,DewpointF,PressureIn,WindDirection,WindDirectionDegrees,WindSpeedMPH,WindSpeedGustMPH,Humidity,HourlyPrecipIn,Conditions,Clouds,dailyrainin,SoftwareType,DateUTC
2013-01-25 00:05:00,10.4,5.2,30.60,WNW,283,4.0,5.0,79,0.00,,,0.00,VWS V14.01,2013-01-25 05:05:00,
2013-01-25 00:16:00,10.4,5.2,30.60,West,262,1.0,4.0,79,0.00,,,0.00,VWS V14.01,2013-01-25 05:16:00,
2013-01-25 00:31:00,10.3,4.8,30.59,West,271,4.0,6.0,78,0.00,,,0.00,VWS V14.01,2013-01-25 05:31:00,
2013-01-25 00:46:00,10.4,5.2,30.59,WSW,246,1.0,5.0,79,0.00,,,0.00,VWS V14.01,2013-01-25 05:46:00,
2013-01-25 01:01:00,10.4,5.2,30.59,West,267,3.0,5.0,79,0.00,,,0.00,VWS V14.01,2013-01-25 06:01:00,
2013-01-25 01:16:00,10.4,5.5,30.59,WNW,288,1.0,5.0,80,0.00,,,0.00,VWS V14.01,2013-01-25 06:16:00,
2013-01-25 01:31:00,10.3,5.4,30.58,SW,227,0.0,5.0,80,0.00,,,0.00,VWS V14.01,2013-01-25 06:31:00,
2013-01-25 01:46:00,10.3,5.6,30.57,WSW,249,0.0,3.0,81,0.00,,,0.00,VWS V14.01,2013-01-25 06:46:00,
2013-01-25 02:01:00,10.3,5.6,30.57,SW,233,0.0,3.0,81,0.00,,,0.00,VWS V14.01,2013-01-25 07:01:00,
2013-01-25 02:16:00,10.2,5.5,30.58,WSW,241,0.0,4.0,81,0.00,,,0.00,VWS V14.01,2013-01-25 07:16:00,
2013-01-25 02:31:00,9.9,5.2,30.58,WSW,250,2.0,6.0,81,0.00,,,0.00,VWS V14.01,2013-01-25 07:31:00,
2013-01-25 02:46:00,9.8,5.4,30.58,West,271,2.0,5.0,82,0.00,,,0.00,VWS V14.01,2013-01-25 07:46:00,
2013-01-25 03:01:00,9.9,5.5,30.58,WSW,250,4.0,4.0,82,0.00,,,0.00,VWS V14.01,2013-01-25 08:01:00,
2013-01-25 03:16:00,9.9,5.5,30.59,WNW,288,1.0,4.0,82,0.00,,,0.00,VWS V14.01,2013-01-25 08:16:00,
2013-01-25 03:31:00,9.8,5.4,30.57,West,259,2.0,5.0,82,0.00,,,0.00,VWS V14.01,2013-01-25 08:31:00,
2013-01-25 03:46:00,9.8,5.7,30.57,West,267,0.0,5.0,83,0.00,,,0.00,VWS V14.01,2013-01-25 08:46:00,
2013-01-25 04:01:00,9.8,5.7,30.57,West,276,0.0,6.0,83,0.00,,,0.00,VWS V14.01,2013-01-25 09:01:00,
2013-01-25 04:16:00,9.9,5.8,30.56,WNW,283,1.0,3.0,83,0.00,,,0.00,VWS V14.01,2013-01-25 09:16:00,
2013-01-25 04:31:00,9.8,5.7,30.55,West,279,0.0,3.0,83,0.00,,,0.00,VWS V14.01,2013-01-25 09:31:00,
2013-01-25 04:46:00,9.8,5.7,30.54,West,273,2.0,3.0,83,0.00,,,0.00,VWS V14.01,2013-01-25 09:46:00,
2013-01-25 05:01:00,9.7,5.6,30.53,WSW,254,0.0,3.0,83,0.00,,,0.00,VWS V14.01,2013-01-25 10:01:00,
2013-01-25 05:16:00,9.7,5.8,30.52,WSW,254,0.0,2.0,84,0.00,,,0.00,VWS V14.01,2013-01-25 10:16:00,
2013-01-25 05:31:00,9.7,5.8,30.52,SW,222,1.0,2.0,84,0.00,,,0.00,VWS V14.01,2013-01-25 10:31:00,
2013-01-25 05:46:00,9.7,5.8,30.52,WSW,238,0.0,4.0,84,0.00,,,0.00,VWS V14.01,2013-01-25 10:46:00,
2013-01-25 06:01:00,9.6,5.8,30.52,WSW,253,1.0,4.0,84,0.00,,,0.00,VWS V14.01,2013-01-25 11:01:00,
2013-01-25 06:16:00,9.6,5.8,30.52,WSW,253,0.0,3.0,84,0.00,,,0.00,VWS V14.01,2013-01-25 11:16:00,
2013-01-25 06:31:00,9.6,5.8,30.51,WSW,252,0.0,3.0,84,0.00,,,0.00,VWS V14.01,2013-01-25 11:31:00,
2013-01-25 06:46:00,9.5,5.7,30.51,SSW,211,2.0,2.0,84,0.00,,,0.00,VWS V14.01,2013-01-25 11:46:00,
2013-01-25 07:01:00,9.5,5.7,30.51,WSW,238,0.0,3.0,84,0.00,,,0.00,VWS V14.01,2013-01-25 12:01:00,
2013-01-25 07:16:00,9.6,5.8,30.51,WSW,238,0.0,4.0,84,0.00,,,0.00,VWS V14.01,2013-01-25 12:16:00,
2013-01-25 07:31:00,9.7,5.6,30.50,SW,222,0.0,4.0,83,0.00,,,0.00,VWS V14.01,2013-01-25 12:31:00,
2013-01-25 07:46:00,9.9,6.0,30.49,SW,222,0.0,3.0,84,0.00,,,0.00,VWS V14.01,2013-01-25 12:46:00,
2013-01-25 08:01:00,10.0,6.1,30.48,SW,217,0.0,4.0,84,0.00,,,0.00,VWS V14.01,2013-01-25 13:01:00,
2013-01-25 08:16:00,10.1,6.2,30.48,SSW,205,2.0,4.0,84,0.00,,,0.00,VWS V14.01,2013-01-25 13:16:00,
2013-01-25 08:31:00,10.3,6.4,30.48,SSW,207,1.0,5.0,84,0.00,,,0.00,VWS V14.01,2013-01-25 13:31:00,
2013-01-25 08:46:00,10.5,6.6,30.48,SSW,211,0.0,4.0,84,0.00,,,0.00,VWS V14.01,2013-01-25 13:46:00,
2013-01-25 09:01:00,10.5,6.6,30.47,SSW,206,0.0,4.0,84,0.00,,,0.00,VWS V14.01,2013-01-25 14:01:00,
2013-01-25 09:16:00,10.7,6.8,30.47,SSW,196,2.0,3.0,84,0.00,,,0.00,VWS V14.01,2013-01-25 14:16:00,
2013-01-25 09:31:00,10.7,6.6,30.46,SSW,192,1.0,4.0,83,0.00,,,0.00,VWS V14.01,2013-01-25 14:31:00,
2013-01-25 09:46:00,11.0,6.6,30.45,SSW,192,0.0,3.0,82,0.00,,,0.00,VWS V14.01,2013-01-25 14:46:00,
2013-01-25 10:01:00,11.3,6.6,30.44,SSW,203,2.0,4.0,81,0.00,,,0.00,VWS V14.01,2013-01-25 15:01:00,
2013-01-25 10:16:00,11.7,6.7,30.44,SSW,200,2.0,4.0,80,0.00,,,0.00,VWS V14.01,2013-01-25 15:16:00,
2013-01-25 10:31:00,12.2,6.9,30.43,SSW,200,0.0,3.0,79,0.00,,,0.00,VWS V14.01,2013-01-25 15:31:00,
2013-01-25 10:46:00,12.6,7.1,30.42,SSW,210,2.0,4.0,78,0.00,,,0.00,VWS V14.01,2013-01-25 15:46:00,
2013-01-25 11:01:00,12.8,7.0,30.41,SSW,199,0.0,4.0,77,0.00,,,0.00,VWS V14.01,2013-01-25 16:01:00,
2013-01-25 11:16:00,13.5,7.4,30.40,SSW,211,2.0,4.0,76,0.00,,,0.00,VWS V14.01,2013-01-25 16:16:00,
2013-01-25 11:31:00,14.3,7.8,30.39,South,186,0.0,3.0,75,0.00,,,0.00,VWS V14.01,2013-01-25 16:31:00,
2013-01-25 11:46:00,14.7,7.9,30.38,SSE,161,0.0,5.0,74,0.00,,,0.00,VWS V14.01,2013-01-25 16:46:00,
2013-01-25 12:01:00,14.5,7.1,30.37,South,191,4.0,5.0,72,0.00,,,0.00,VWS V14.01,2013-01-25 17:01:00,
2013-01-25 12:16:00,14.3,7.2,30.35,SSW,196,2.0,6.0,73,0.00,,,0.00,VWS V14.01,2013-01-25 17:16:00,
2013-01-25 12:31:00,14.5,7.4,30.34,South,183,2.0,6.0,73,0.00,,,0.00,VWS V14.01,2013-01-25 17:31:00,
2013-01-25 12:46:00,14.9,7.5,30.33,South,184,2.0,5.0,72,0.00,,,0.00,VWS V14.01,2013-01-25 17:46:00,
2013-01-25 13:01:00,15.2,7.8,30.32,SSW,199,0.0,5.0,72,0.00,,,0.00,VWS V14.01,2013-01-25 18:01:00,
2013-01-25 13:16:00,15.3,7.9,30.32,SSW,206,2.0,6.0,72,0.00,,,0.00,VWS V14.01,2013-01-25 18:16:00,
2013-01-25 13:31:00,15.4,8.0,30.31,South,183,3.0,5.0,72,0.00,,,0.00,VWS V14.01,2013-01-25 18:31:00,
2013-01-25 13:46:00,15.7,8.3,30.30,SW,218,0.0,6.0,72,0.00,,,0.00,VWS V14.01,2013-01-25 18:46:00,
2013-01-25 14:01:00,16.1,8.4,30.29,South,174,1.0,5.0,71,0.00,,,0.00,VWS V14.01,2013-01-25 19:01:00,
2013-01-25 14:16:00,16.1,8.4,30.28,SSE,151,1.0,3.0,71,0.00,,,0.00,VWS V14.01,2013-01-25 19:16:00,
2013-01-25 14:31:00,16.3,8.6,30.28,SSE,159,0.0,3.0,71,0.00,,,0.00,VWS V14.01,2013-01-25 19:31:00,
2013-01-25 14:46:00,16.4,8.7,30.27,SSE,159,0.0,3.0,71,0.00,,,0.00,VWS V14.01,2013-01-25 19:46:00,
2013-01-25 15:01:00,16.4,8.7,30.26,SSE,159,2.0,3.0,71,0.00,,,0.00,VWS V14.01,2013-01-25 20:01:00,
2013-01-25 15:16:00,16.1,9.3,30.25,SSE,159,0.0,4.0,74,0.00,,,0.00,VWS V14.01,2013-01-25 20:16:00,
2013-01-25 15:31:00,16.0,10.4,30.25,SSE,159,0.0,3.0,78,0.00,,,0.00,VWS V14.01,2013-01-25 20:31:00,
2013-01-25 15:46:00,15.8,10.5,30.24,SSE,159,1.0,3.0,79,0.00,,,0.00,VWS V14.01,2013-01-25 20:46:00,
2013-01-25 16:01:00,15.6,10.8,30.23,SSE,159,1.0,3.0,81,0.00,,,0.00,VWS V14.01,2013-01-25 21:01:00,
2013-01-25 16:16:00,15.8,11.6,30.23,ENE,65,0.0,2.0,83,0.00,,,0.00,VWS V14.01,2013-01-25 21:16:00,
2013-01-25 16:31:00,15.8,11.6,30.22,ENE,69,0.0,2.0,83,0.00,,,0.00,VWS V14.01,2013-01-25 21:31:00,
2013-01-25 16:46:00,15.7,11.5,30.23,ENE,73,1.0,2.0,83,0.00,,,0.00,VWS V14.01,2013-01-25 21:46:00,
2013-01-25 17:01:00,15.6,11.6,30.22,ENE,74,0.0,2.0,84,0.00,,,0.00,VWS V14.01,2013-01-25 22:01:00,
2013-01-25 17:16:00,15.5,12.1,30.22,ENE,74,0.0,1.0,86,0.00,,,0.00,VWS V14.01,2013-01-25 22:16:00,
2013-01-25 17:31:00,15.4,12.0,30.22,ENE,74,0.0,0.0,86,0.00,,,0.00,VWS V14.01,2013-01-25 22:31:00,
2013-01-25 17:46:00,15.2,11.8,30.21,ENE,74,0.0,1.0,86,0.00,,,0.00,VWS V14.01,2013-01-25 22:46:00,
2013-01-25 18:01:00,15.1,11.9,30.21,ENE,74,0.0,2.0,87,0.00,,,0.00,VWS V14.01,2013-01-25 23:01:00,
2013-01-25 18:16:00,15.0,11.8,30.20,ENE,74,0.0,3.0,87,0.00,,,0.00,VWS V14.01,2013-01-25 23:16:00,
2013-01-25 18:31:00,14.9,11.7,30.21,ESE,102,0.0,3.0,87,0.00,,,0.00,VWS V14.01,2013-01-25 23:31:00,
2013-01-25 18:46:00,14.8,11.4,30.21,ESE,110,0.0,3.0,86,0.00,,,0.00,VWS V14.01,2013-01-25 23:46:00,
2013-01-25 19:01:00,14.7,11.3,30.20,ESE,112,0.0,3.0,86,0.00,,,0.00,VWS V14.01,2013-01-26 00:01:00,
2013-01-25 19:16:00,14.6,11.2,30.20,ESE,113,0.0,2.0,86,0.00,,,0.00,VWS V14.01,2013-01-26 00:16:00,
2013-01-25 19:31:00,14.5,11.3,30.20,ESE,113,0.0,2.0,87,0.00,,,0.00,VWS V14.01,2013-01-26 00:31:00,
2013-01-25 19:46:00,14.4,11.2,30.20,ESE,113,0.0,2.0,87,0.00,,,0.00,VWS V14.01,2013-01-26 00:46:00,
2013-01-25 20:01:00,14.3,11.1,30.19,ESE,113,0.0,2.0,87,0.00,,,0.00,VWS V14.01,2013-01-26 01:01:00,
2013-01-25 20:16:00,14.3,11.1,30.19,ESE,113,0.0,2.0,87,0.00,,,0.00,VWS V14.01,2013-01-26 01:16:00,
2013-01-25 20:31:00,14.2,11.1,30.19,ESE,113,0.0,0.0,87,0.00,,,0.00,VWS V14.01,2013-01-26 01:31:00,
2013-01-25 20:46:00,14.0,10.9,30.19,ESE,113,0.0,0.0,87,0.00,,,0.00,VWS V14.01,2013-01-26 01:46:00,
2013-01-25 21:01:00,13.8,10.6,30.19,ESE,113,0.0,0.0,87,0.00,,,0.00,VWS V14.01,2013-01-26 02:01:00,
2013-01-25 21:16:00,13.4,10.3,30.20,ESE,113,0.0,0.0,87,0.00,,,0.00,VWS V14.01,2013-01-26 02:16:00,
2013-01-25 21:31:00,13.0,10.1,30.19,ESE,113,0.0,0.0,88,0.00,,,0.00,VWS V14.01,2013-01-26 02:31:00,
2013-01-25 21:46:00,12.7,9.8,30.19,ESE,113,0.0,1.0,88,0.00,,,0.00,VWS V14.01,2013-01-26 02:46:00,
2013-01-25 22:01:00,12.3,9.4,30.19,ESE,113,0.0,0.0,88,0.00,,,0.00,VWS V14.01,2013-01-26 03:01:00,
2013-01-25 22:16:00,11.9,9.0,30.19,ESE,113,0.0,0.0,88,0.00,,,0.00,VWS V14.01,2013-01-26 03:16:00,
2013-01-25 22:31:00,11.5,8.6,30.20,ESE,113,0.0,0.0,88,0.00,,,0.00,VWS V14.01,2013-01-26 03:31:00,
2013-01-25 22:46:00,10.8,7.9,30.20,ESE,113,0.0,0.0,88,0.00,,,0.00,VWS V14.01,2013-01-26 03:46:00,
2013-01-25 23:01:00,10.2,7.4,30.20,ESE,113,0.0,0.0,88,0.00,,,0.00,VWS V14.01,2013-01-26 04:01:00,
2013-01-25 23:16:00,9.2,6.4,30.20,ESE,113,0.0,0.0,88,0.00,,,0.00,VWS V14.01,2013-01-26 04:16:00,
2013-01-25 23:31:00,8.2,5.4,30.20,ESE,113,0.0,0.0,88,0.00,,,0.00,VWS V14.01,2013-01-26 04:31:00,
2013-01-25 23:46:00,8.3,5.7,30.20,ESE,113,0.0,1.0,89,0.00,,,0.00,VWS V14.01,2013-01-26 04:46:00,